createdAt,value
2023-05-02T00:00:03.339Z,4.00
2023-05-02T00:00:15.202Z,4.10
2023-05-02T00:00:28.390Z,3.80
2023-05-02T00:00:39.129Z,3.60
2023-05-02T00:00:49.942Z,3.50
2023-05-02T00:01:02.414Z,3.80
2023-05-02T00:01:14.597Z,4.10
2023-05-02T00:01:27.153Z,4.10
2023-05-02T00:01:39.623Z,4.00
2023-05-02T00:01:52.149Z,4.00
2023-05-02T00:02:05.379Z,3.80
2023-05-02T00:02:18.436Z,3.90
2023-05-02T00:02:29.247Z,3.90
2023-05-02T00:02:41.269Z,3.80
2023-05-02T00:02:53.919Z,4.00
2023-05-02T00:03:06.490Z,4.00
2023-05-02T00:03:20.370Z,4.20
2023-05-02T00:03:32.151Z,4.00
2023-05-02T00:03:43.062Z,3.70
2023-05-02T00:03:53.990Z,3.80
2023-05-02T00:04:05.001Z,3.90
2023-05-02T00:04:16.888Z,3.90
2023-05-02T00:04:28.744Z,3.90
2023-05-02T00:04:40.518Z,3.70
2023-05-02T00:04:52.134Z,3.80
2023-05-02T00:05:04.567Z,3.70
2023-05-02T00:05:17.787Z,4.00
2023-05-02T00:05:28.536Z,4.00
2023-05-02T00:05:40.727Z,4.10
2023-05-02T00:05:52.443Z,3.90
2023-05-02T00:06:03.359Z,3.90
2023-05-02T00:06:15.854Z,4.10
2023-05-02T00:06:27.801Z,4.00
2023-05-02T00:06:38.757Z,4.00
2023-05-02T00:06:49.534Z,4.20
2023-05-02T00:07:02.021Z,3.90
2023-05-02T00:07:12.768Z,3.80
2023-05-02T00:07:23.472Z,3.60
2023-05-02T00:07:35.929Z,3.70
2023-05-02T00:07:46.685Z,4.10
2023-05-02T00:07:57.444Z,4.40
2023-05-02T00:08:08.196Z,4.50
2023-05-02T00:08:18.941Z,4.50
2023-05-02T00:08:31.416Z,4.20
2023-05-02T00:08:42.167Z,3.80
2023-05-02T00:08:54.360Z,3.50
2023-05-02T00:09:06.837Z,3.90
2023-05-02T00:09:19.289Z,3.80
2023-05-02T00:09:30.007Z,4.00
2023-05-02T00:09:41.636Z,4.20
2023-05-02T00:09:52.366Z,4.20
2023-05-02T00:10:03.305Z,4.00
2023-05-02T00:10:15.737Z,3.70
2023-05-02T00:10:26.489Z,3.70
2023-05-02T00:10:37.249Z,3.50
2023-05-02T00:10:49.446Z,3.90
2023-05-02T00:11:00.158Z,4.10
2023-05-02T00:11:10.892Z,4.50
2023-05-02T00:11:22.610Z,4.40
2023-05-02T00:11:33.425Z,4.20
2023-05-02T00:11:44.092Z,4.20
2023-05-02T00:11:54.812Z,4.10
2023-05-02T00:12:06.523Z,4.50
2023-05-02T00:12:18.671Z,4.60
2023-05-02T00:12:31.154Z,4.30
2023-05-02T00:12:41.866Z,3.50
2023-05-02T00:12:54.293Z,3.70
2023-05-02T00:13:06.769Z,3.90
2023-05-02T00:13:17.426Z,4.00
2023-05-02T00:13:29.847Z,3.80
2023-05-02T00:13:40.563Z,3.80
2023-05-02T00:13:51.265Z,3.80
2023-05-02T00:14:02.041Z,4.20
2023-05-02T00:14:14.186Z,4.10
2023-05-02T00:14:24.914Z,4.30
2023-05-02T00:14:35.648Z,4.10
2023-05-02T00:14:47.335Z,3.80
2023-05-02T00:14:59.739Z,3.80
2023-05-02T00:15:11.485Z,4.20
2023-05-02T00:15:22.206Z,4.30
2023-05-02T00:15:33.898Z,4.20
2023-05-02T00:15:47.057Z,4.30
2023-05-02T00:15:57.754Z,4.10
2023-05-02T00:16:08.466Z,4.20
2023-05-02T00:16:20.859Z,4.10
2023-05-02T00:16:31.625Z,4.10
2023-05-02T00:16:42.360Z,4.30
2023-05-02T00:16:53.202Z,4.50
2023-05-02T00:17:04.987Z,4.30
2023-05-02T00:17:16.672Z,4.20
2023-05-02T00:17:28.351Z,4.10
2023-05-02T00:17:39.028Z,4.20
2023-05-02T00:17:49.813Z,4.10
2023-05-02T00:18:01.552Z,4.00
2023-05-02T00:18:12.350Z,4.20
2023-05-02T00:18:23.089Z,4.60
2023-05-02T00:18:33.861Z,4.60
2023-05-02T00:18:45.547Z,4.50
2023-05-02T00:18:57.335Z,4.10
2023-05-02T00:19:08.145Z,4.00
2023-05-02T00:19:20.648Z,4.10
2023-05-02T00:19:31.343Z,4.40
2023-05-02T00:19:43.036Z,4.20
2023-05-02T00:19:54.699Z,4.20
2023-05-02T00:20:05.434Z,4.20
2023-05-02T00:20:16.117Z,4.30
2023-05-02T00:20:27.803Z,4.20
2023-05-02T00:20:39.499Z,4.10
2023-05-02T00:20:50.240Z,4.10
2023-05-02T00:21:02.678Z,3.90
2023-05-02T00:21:13.394Z,3.80
2023-05-02T00:21:25.091Z,3.90
2023-05-02T00:21:35.804Z,4.10
2023-05-02T00:21:46.540Z,4.20
2023-05-02T00:21:58.997Z,4.00
2023-05-02T00:22:09.708Z,3.90
2023-05-02T00:22:21.388Z,3.90
2023-05-02T00:22:33.811Z,3.90
2023-05-02T00:22:45.575Z,4.10
2023-05-02T00:22:56.281Z,4.30
2023-05-02T00:23:07.017Z,4.50
2023-05-02T00:23:17.762Z,4.40
2023-05-02T00:23:29.446Z,4.30
2023-05-02T00:23:41.162Z,4.40
2023-05-02T00:23:51.920Z,4.60
2023-05-02T00:24:02.685Z,4.70
2023-05-02T00:24:13.434Z,4.70
2023-05-02T00:24:24.203Z,4.80
2023-05-02T00:24:34.952Z,4.70
2023-05-02T00:24:45.686Z,4.50
2023-05-02T00:24:56.387Z,4.70
2023-05-02T00:25:07.153Z,4.80
2023-05-02T00:25:18.828Z,4.80
2023-05-02T00:25:31.015Z,4.70
2023-05-02T00:25:41.766Z,4.90
2023-05-02T00:25:54.232Z,4.70
2023-05-02T00:26:04.922Z,4.60
2023-05-02T00:26:15.633Z,4.60
2023-05-02T00:26:28.060Z,4.50
2023-05-02T00:26:40.786Z,4.20
2023-05-02T00:26:55.421Z,4.30
2023-05-02T00:27:06.228Z,4.60
2023-05-02T00:27:17.902Z,4.80
2023-05-02T00:27:29.620Z,4.70
2023-05-02T00:27:41.297Z,4.60
2023-05-02T00:27:52.064Z,5.00
2023-05-02T00:28:04.302Z,5.10
2023-05-02T00:28:14.976Z,4.90
2023-05-02T00:28:25.690Z,4.70
2023-05-02T00:28:37.383Z,4.40
2023-05-02T00:28:49.585Z,4.60
2023-05-02T00:29:01.259Z,4.90
2023-05-02T00:29:11.981Z,5.00
2023-05-02T00:29:24.442Z,4.80
2023-05-02T00:29:36.132Z,4.70
2023-05-02T00:29:46.828Z,4.70
2023-05-02T00:30:00.304Z,4.70
2023-05-02T00:30:11.219Z,5.20
2023-05-02T00:30:21.938Z,5.40
2023-05-02T00:30:33.596Z,5.30
2023-05-02T00:30:44.344Z,5.00
2023-05-02T00:30:56.050Z,4.70
2023-05-02T00:31:07.715Z,4.70
2023-05-02T00:31:19.981Z,4.90
2023-05-02T00:31:30.747Z,5.10
2023-05-02T00:31:42.568Z,5.30
2023-05-02T00:31:53.354Z,5.80
2023-05-02T00:32:06.052Z,5.80
2023-05-02T00:32:16.711Z,5.70
2023-05-02T00:32:29.200Z,5.60
2023-05-02T00:32:39.866Z,5.30
2023-05-02T00:32:52.581Z,5.20
2023-05-02T00:33:05.823Z,5.20
2023-05-02T00:33:16.565Z,4.70
2023-05-02T00:33:27.272Z,4.50
2023-05-02T00:33:39.715Z,4.80
2023-05-02T00:33:50.405Z,5.00
2023-05-02T00:34:02.111Z,5.30
2023-05-02T00:34:13.825Z,5.80
2023-05-02T00:34:24.556Z,5.60
2023-05-02T00:34:35.261Z,5.40
2023-05-02T00:34:46.941Z,5.30
2023-05-02T00:34:57.643Z,5.60
2023-05-02T00:35:10.873Z,6.10
2023-05-02T00:35:24.037Z,6.60
2023-05-02T00:35:35.706Z,6.70
2023-05-02T00:35:47.898Z,6.80
2023-05-02T00:36:00.307Z,6.30
2023-05-02T00:36:12.694Z,5.70
2023-05-02T00:36:24.366Z,5.70
2023-05-02T00:36:36.064Z,6.10
2023-05-02T00:36:46.785Z,6.10
2023-05-02T00:36:58.448Z,5.60
2023-05-02T00:37:10.119Z,5.20
2023-05-02T00:37:22.519Z,5.30
2023-05-02T00:37:33.281Z,5.30
2023-05-02T00:37:43.976Z,5.10
2023-05-02T00:37:54.692Z,5.20
2023-05-02T00:38:06.379Z,5.50
2023-05-02T00:38:18.124Z,5.80
2023-05-02T00:38:29.849Z,6.00
2023-05-02T00:38:41.534Z,6.30
2023-05-02T00:38:52.273Z,6.90
2023-05-02T00:39:02.969Z,7.00
2023-05-02T00:39:15.407Z,7.10
2023-05-02T00:39:26.146Z,6.80
2023-05-02T00:39:38.554Z,6.50
2023-05-02T00:39:50.264Z,6.20
2023-05-02T00:40:03.170Z,5.90
2023-05-02T00:40:15.152Z,6.20
2023-05-02T00:40:27.539Z,6.30
2023-05-02T00:40:39.208Z,6.10
2023-05-02T00:40:49.978Z,6.20
2023-05-02T00:41:00.794Z,6.10
2023-05-02T00:41:12.436Z,6.30
2023-05-02T00:41:23.145Z,6.40
2023-05-02T00:41:33.876Z,6.60
2023-05-02T00:41:45.603Z,6.80
2023-05-02T00:41:57.980Z,6.50
2023-05-02T00:42:09.627Z,6.50
2023-05-02T00:42:21.396Z,7.20
2023-05-02T00:42:32.080Z,7.00
2023-05-02T00:42:44.532Z,6.40
2023-05-02T00:42:57.432Z,5.90
2023-05-02T00:43:08.257Z,6.20
2023-05-02T00:43:19.975Z,6.70
2023-05-02T00:43:32.647Z,7.00
2023-05-02T00:43:46.107Z,7.20
2023-05-02T00:43:56.912Z,6.90
2023-05-02T00:44:09.094Z,6.90
2023-05-02T00:44:20.759Z,6.40
2023-05-02T00:44:33.232Z,6.70
2023-05-02T00:44:43.914Z,6.80
2023-05-02T00:44:54.625Z,7.00
2023-05-02T00:45:07.067Z,6.40
2023-05-02T00:45:17.803Z,6.50
2023-05-02T00:45:29.481Z,6.50
2023-05-02T00:45:40.206Z,6.80
2023-05-02T00:45:50.945Z,6.50
2023-05-02T00:46:03.679Z,6.30
2023-05-02T00:46:14.422Z,6.10
2023-05-02T00:46:26.079Z,6.30
2023-05-02T00:46:37.795Z,6.20
2023-05-02T00:46:48.591Z,6.70
2023-05-02T00:47:01.563Z,6.70
2023-05-02T00:47:13.258Z,7.00
2023-05-02T00:47:25.750Z,6.70
2023-05-02T00:47:38.250Z,7.00
2023-05-02T00:47:48.973Z,7.00
2023-05-02T00:48:00.698Z,6.60
2023-05-02T00:48:11.511Z,6.50
2023-05-02T00:48:22.286Z,6.20
2023-05-02T00:48:34.492Z,6.50
2023-05-02T00:48:47.395Z,6.70
2023-05-02T00:48:59.084Z,6.60
2023-05-02T00:49:10.772Z,6.60
2023-05-02T00:49:21.501Z,6.50
2023-05-02T00:49:32.206Z,6.60
2023-05-02T00:49:44.595Z,6.50
2023-05-02T00:49:55.299Z,6.60
2023-05-02T00:50:07.009Z,6.40
2023-05-02T00:50:19.462Z,6.50
2023-05-02T00:50:31.155Z,6.80
2023-05-02T00:50:43.613Z,6.90
2023-05-02T00:50:54.312Z,6.30
2023-05-02T00:51:05.061Z,6.30
2023-05-02T00:51:16.750Z,6.30
2023-05-02T00:51:29.950Z,6.70
2023-05-02T00:51:42.120Z,6.60
2023-05-02T00:51:55.272Z,6.60
2023-05-02T00:52:06.013Z,6.70
2023-05-02T00:52:16.685Z,6.80
2023-05-02T00:52:29.930Z,6.50
2023-05-02T00:52:40.731Z,6.60
2023-05-02T00:52:53.151Z,6.50
2023-05-02T00:53:04.859Z,6.50
2023-05-02T00:53:15.562Z,6.10
2023-05-02T00:53:26.253Z,6.40
2023-05-02T00:53:36.949Z,6.30
2023-05-02T00:53:47.729Z,6.40
2023-05-02T00:53:58.473Z,6.60
2023-05-02T00:54:10.202Z,6.80
2023-05-02T00:54:20.989Z,6.90
2023-05-02T00:54:31.835Z,6.90
2023-05-02T00:54:43.542Z,6.80
2023-05-02T00:54:56.067Z,6.50
2023-05-02T00:55:07.820Z,6.50
2023-05-02T00:55:19.980Z,6.50
2023-05-02T00:55:32.370Z,6.80
2023-05-02T00:55:44.591Z,6.80
2023-05-02T00:55:55.300Z,7.00
2023-05-02T00:56:06.778Z,7.20
2023-05-02T00:56:19.973Z,7.40
2023-05-02T00:56:32.434Z,7.30
2023-05-02T00:56:43.165Z,6.80
2023-05-02T00:56:54.856Z,6.80
2023-05-02T00:57:06.559Z,7.10
2023-05-02T00:57:18.281Z,7.10
2023-05-02T00:57:28.993Z,6.80
2023-05-02T00:57:40.713Z,7.00
2023-05-02T00:57:52.403Z,7.00
2023-05-02T00:58:03.092Z,6.70
2023-05-02T00:58:13.800Z,6.50
2023-05-02T00:58:24.553Z,7.00
2023-05-02T00:58:35.263Z,6.90
2023-05-02T00:58:46.039Z,6.80
2023-05-02T00:58:56.735Z,6.80
2023-05-02T00:59:08.645Z,6.90
2023-05-02T00:59:19.400Z,7.00
2023-05-02T00:59:30.122Z,6.90
2023-05-02T00:59:40.820Z,6.90
2023-05-02T00:59:52.548Z,7.00
2023-05-02T01:00:04.483Z,6.80
2023-05-02T01:00:15.220Z,7.00
2023-05-02T01:00:28.398Z,7.30
2023-05-02T01:00:41.573Z,7.30
2023-05-02T01:00:53.984Z,6.50
2023-05-02T01:01:04.716Z,6.50
2023-05-02T01:01:15.451Z,6.60
2023-05-02T01:01:27.678Z,7.30
2023-05-02T01:01:40.136Z,7.70
2023-05-02T01:01:52.569Z,8.00
2023-05-02T01:02:05.093Z,7.90
2023-05-02T01:02:16.081Z,8.10
2023-05-02T01:02:28.596Z,7.80
2023-05-02T01:02:39.494Z,7.90
2023-05-02T01:02:51.316Z,7.70
2023-05-02T01:03:03.237Z,7.30
2023-05-02T01:03:14.267Z,7.30
2023-05-02T01:03:25.134Z,7.30
2023-05-02T01:03:36.067Z,7.40
2023-05-02T01:03:47.892Z,7.10
2023-05-02T01:03:58.717Z,6.80
2023-05-02T01:04:11.810Z,6.80
2023-05-02T01:04:22.650Z,6.80
2023-05-02T01:04:33.336Z,7.00
2023-05-02T01:04:45.765Z,7.10
2023-05-02T01:04:58.200Z,7.10
2023-05-02T01:05:09.951Z,7.60
2023-05-02T01:05:20.660Z,7.40
2023-05-02T01:05:31.408Z,7.30
2023-05-02T01:05:42.105Z,6.80
2023-05-02T01:05:53.794Z,6.90
2023-05-02T01:06:07.468Z,7.20
2023-05-02T01:06:19.714Z,7.10
2023-05-02T01:06:31.483Z,7.00
2023-05-02T01:06:43.714Z,7.30
2023-05-02T01:06:54.409Z,7.50
2023-05-02T01:07:07.091Z,7.30
2023-05-02T01:07:18.834Z,7.40
2023-05-02T01:07:30.529Z,7.80
2023-05-02T01:07:41.282Z,7.80
2023-05-02T01:07:53.720Z,7.40
2023-05-02T01:08:05.397Z,7.50
2023-05-02T01:08:17.124Z,7.20
2023-05-02T01:08:28.823Z,7.30
2023-05-02T01:08:39.538Z,7.90
2023-05-02T01:08:50.241Z,7.70
2023-05-02T01:09:03.390Z,7.60
2023-05-02T01:09:15.172Z,7.30
2023-05-02T01:09:26.843Z,7.60
2023-05-02T01:09:37.611Z,7.70
2023-05-02T01:09:48.308Z,7.50
2023-05-02T01:09:59.346Z,7.70
2023-05-02T01:10:11.212Z,7.80
2023-05-02T01:10:21.946Z,8.00
2023-05-02T01:10:35.562Z,8.60
2023-05-02T01:10:47.222Z,8.50
2023-05-02T01:10:58.038Z,8.10
2023-05-02T01:11:09.690Z,8.30
2023-05-02T01:11:20.384Z,8.00
2023-05-02T01:11:32.668Z,7.90
2023-05-02T01:11:44.900Z,7.40
2023-05-02T01:11:56.594Z,7.40
2023-05-02T01:12:07.334Z,8.00
2023-05-02T01:12:20.283Z,7.70
2023-05-02T01:12:34.427Z,7.50
2023-05-02T01:12:47.546Z,7.00
2023-05-02T01:12:58.275Z,7.30
2023-05-02T01:13:08.964Z,7.60
2023-05-02T01:13:20.658Z,7.60
2023-05-02T01:13:31.647Z,7.40
2023-05-02T01:13:43.357Z,7.40
2023-05-02T01:13:54.053Z,7.50
2023-05-02T01:14:05.731Z,8.50
2023-05-02T01:14:16.425Z,8.70
2023-05-02T01:14:28.094Z,9.40
2023-05-02T01:14:40.533Z,8.50
2023-05-02T01:14:52.960Z,8.40
2023-05-02T01:15:03.659Z,7.70
2023-05-02T01:15:15.863Z,7.60
2023-05-02T01:15:28.085Z,7.90
2023-05-02T01:15:40.801Z,7.90
2023-05-02T01:15:54.020Z,8.20
2023-05-02T01:16:05.741Z,8.20
2023-05-02T01:16:16.489Z,8.30
2023-05-02T01:16:28.989Z,8.50
2023-05-02T01:16:40.732Z,8.50
2023-05-02T01:16:51.454Z,8.40
2023-05-02T01:17:02.194Z,8.20
2023-05-02T01:17:13.881Z,7.70
2023-05-02T01:17:25.624Z,7.50
2023-05-02T01:17:38.054Z,7.50
2023-05-02T01:17:50.301Z,7.90
2023-05-02T01:18:03.222Z,7.80
2023-05-02T01:18:14.013Z,7.90
2023-05-02T01:18:24.751Z,8.20
2023-05-02T01:18:36.422Z,7.90
2023-05-02T01:18:49.299Z,8.20
2023-05-02T01:19:00.049Z,8.30
2023-05-02T01:19:10.785Z,8.10
2023-05-02T01:19:22.462Z,8.20
2023-05-02T01:19:34.377Z,7.80
2023-05-02T01:19:46.531Z,7.40
2023-05-02T01:19:58.539Z,7.60
2023-05-02T01:20:11.440Z,8.00
2023-05-02T01:20:23.106Z,8.40
2023-05-02T01:20:35.311Z,8.30
2023-05-02T01:20:46.042Z,8.30
2023-05-02T01:20:56.721Z,8.00
2023-05-02T01:21:08.436Z,8.10
2023-05-02T01:21:19.123Z,8.10
2023-05-02T01:21:29.827Z,8.20
2023-05-02T01:21:40.535Z,8.00
2023-05-02T01:21:51.226Z,8.00
2023-05-02T01:22:01.979Z,8.20
2023-05-02T01:22:12.709Z,8.10
2023-05-02T01:22:25.887Z,8.10
2023-05-02T01:22:38.098Z,8.00
2023-05-02T01:22:50.489Z,7.90
2023-05-02T01:23:02.145Z,8.30
2023-05-02T01:23:14.587Z,8.70
2023-05-02T01:23:25.285Z,8.50
2023-05-02T01:23:37.697Z,8.20
2023-05-02T01:23:48.448Z,7.70
2023-05-02T01:23:59.171Z,7.70
2023-05-02T01:24:10.150Z,8.00
2023-05-02T01:24:21.855Z,8.10
2023-05-02T01:24:32.537Z,8.20
2023-05-02T01:24:44.207Z,8.30
2023-05-02T01:24:57.920Z,7.80
2023-05-02T01:25:08.648Z,8.00
2023-05-02T01:25:20.327Z,8.40
2023-05-02T01:25:31.015Z,8.20
2023-05-02T01:25:41.723Z,8.00
2023-05-02T01:25:53.438Z,8.10
2023-05-02T01:26:05.114Z,8.50
2023-05-02T01:26:18.392Z,8.30
2023-05-02T01:26:30.839Z,7.40
2023-05-02T01:26:43.049Z,7.60
2023-05-02T01:26:55.409Z,7.80
2023-05-02T01:27:06.114Z,7.80
2023-05-02T01:27:17.770Z,7.70
2023-05-02T01:27:29.445Z,7.90
2023-05-02T01:27:40.150Z,8.00
2023-05-02T01:27:51.808Z,7.50
2023-05-02T01:28:02.537Z,7.60
2023-05-02T01:28:14.226Z,7.80
2023-05-02T01:28:24.958Z,8.70
2023-05-02T01:28:35.694Z,8.60
2023-05-02T01:28:46.378Z,8.50
2023-05-02T01:28:58.097Z,8.40
2023-05-02T01:29:11.751Z,8.60
2023-05-02T01:29:23.496Z,8.10
2023-05-02T01:29:34.172Z,8.60
2023-05-02T01:29:47.371Z,8.60
2023-05-02T01:30:00.782Z,8.50
2023-05-02T01:30:12.652Z,8.40
2023-05-02T01:30:23.408Z,8.70
2023-05-02T01:30:35.125Z,8.60
2023-05-02T01:30:48.307Z,8.30
2023-05-02T01:31:00.248Z,8.20
2023-05-02T01:31:13.936Z,8.20
2023-05-02T01:31:27.120Z,8.40
2023-05-02T01:31:39.611Z,8.30
2023-05-02T01:31:50.402Z,8.30
2023-05-02T01:32:01.161Z,8.50
2023-05-02T01:32:12.854Z,8.50
2023-05-02T01:32:25.256Z,8.60
2023-05-02T01:32:36.040Z,8.40
2023-05-02T01:32:47.734Z,8.20
2023-05-02T01:33:00.848Z,8.20
2023-05-02T01:33:12.693Z,7.80
2023-05-02T01:33:23.397Z,8.10
2023-05-02T01:33:34.085Z,8.40
2023-05-02T01:33:45.749Z,8.20
2023-05-02T01:33:57.925Z,8.20
2023-05-02T01:34:10.411Z,8.30
2023-05-02T01:34:23.088Z,8.30
2023-05-02T01:34:33.828Z,8.20
2023-05-02T01:34:45.706Z,8.40
2023-05-02T01:34:56.464Z,8.50
2023-05-02T01:35:08.128Z,8.60
2023-05-02T01:35:20.598Z,8.70
2023-05-02T01:35:31.340Z,8.20
2023-05-02T01:35:44.513Z,8.40
2023-05-02T01:35:55.211Z,8.10
2023-05-02T01:36:06.876Z,8.20
2023-05-02T01:36:19.324Z,8.70
2023-05-02T01:36:30.022Z,8.60
2023-05-02T01:36:42.455Z,8.40
2023-05-02T01:36:54.398Z,8.40
2023-05-02T01:37:06.125Z,8.60
2023-05-02T01:37:16.830Z,8.60
2023-05-02T01:37:29.719Z,8.80
2023-05-02T01:37:41.370Z,8.50
2023-05-02T01:37:52.055Z,8.60
2023-05-02T01:38:04.437Z,8.60
2023-05-02T01:38:16.134Z,8.60
2023-05-02T01:38:26.864Z,8.20
2023-05-02T01:38:37.580Z,8.10
2023-05-02T01:38:48.302Z,8.10
2023-05-02T01:38:59.049Z,7.90
2023-05-02T01:39:10.739Z,7.90
2023-05-02T01:39:22.459Z,8.20
2023-05-02T01:39:34.114Z,8.40
2023-05-02T01:39:46.306Z,8.40
2023-05-02T01:39:59.097Z,8.70
2023-05-02T01:40:10.985Z,9.10
2023-05-02T01:40:23.410Z,8.80
2023-05-02T01:40:34.177Z,8.50
2023-05-02T01:40:44.945Z,8.40
2023-05-02T01:40:57.647Z,8.40
2023-05-02T01:41:10.049Z,8.70
2023-05-02T01:41:20.771Z,8.80
2023-05-02T01:41:32.444Z,9.10
2023-05-02T01:41:44.125Z,8.30
2023-05-02T01:41:55.814Z,8.30
2023-05-02T01:42:07.464Z,8.30
2023-05-02T01:42:19.859Z,8.90
2023-05-02T01:42:30.585Z,8.50
2023-05-02T01:42:41.297Z,8.90
2023-05-02T01:42:51.985Z,9.00
2023-05-02T01:43:05.668Z,8.80
2023-05-02T01:43:17.388Z,8.40
2023-05-02T01:43:29.595Z,8.00
2023-05-02T01:43:40.331Z,8.30
2023-05-02T01:43:51.013Z,8.70
2023-05-02T01:44:01.773Z,8.50
2023-05-02T01:44:12.533Z,8.40
2023-05-02T01:44:25.435Z,8.80
2023-05-02T01:44:36.156Z,9.40
2023-05-02T01:44:47.844Z,9.00
2023-05-02T01:44:59.553Z,8.70
2023-05-02T01:45:11.239Z,8.30
2023-05-02T01:45:23.017Z,8.20
2023-05-02T01:45:34.718Z,8.50
2023-05-02T01:45:45.466Z,8.90
2023-05-02T01:45:59.548Z,9.00
2023-05-02T01:46:10.263Z,8.90
2023-05-02T01:46:21.984Z,9.10
2023-05-02T01:46:34.201Z,8.50
2023-05-02T01:46:45.020Z,8.50
2023-05-02T01:46:56.719Z,8.30
2023-05-02T01:47:10.052Z,8.50
2023-05-02T01:47:21.882Z,9.00
2023-05-02T01:47:33.666Z,8.90
2023-05-02T01:47:44.413Z,9.20
2023-05-02T01:47:57.625Z,9.20
2023-05-02T01:48:10.051Z,9.00
2023-05-02T01:48:21.741Z,9.10
2023-05-02T01:48:34.666Z,9.30
2023-05-02T01:48:46.845Z,8.80
2023-05-02T01:48:57.549Z,8.30
2023-05-02T01:49:08.340Z,8.10
2023-05-02T01:49:21.058Z,8.80
2023-05-02T01:49:33.494Z,9.20
2023-05-02T01:49:45.709Z,9.20
2023-05-02T01:49:59.113Z,9.20
2023-05-02T01:50:11.719Z,9.00
2023-05-02T01:50:24.133Z,9.20
2023-05-02T01:50:36.319Z,9.40
2023-05-02T01:50:47.998Z,9.50
2023-05-02T01:50:59.710Z,9.10
2023-05-02T01:51:11.419Z,9.40
2023-05-02T01:51:23.601Z,9.10
2023-05-02T01:51:36.025Z,9.00
2023-05-02T01:51:46.769Z,9.20
2023-05-02T01:51:57.486Z,9.20
2023-05-02T01:52:09.682Z,9.50
2023-05-02T01:52:20.392Z,9.80
2023-05-02T01:52:31.089Z,9.60
2023-05-02T01:52:43.254Z,8.90
2023-05-02T01:52:53.966Z,8.80
2023-05-02T01:53:04.661Z,9.00
2023-05-02T01:53:16.849Z,9.60
2023-05-02T01:53:28.511Z,10.00
2023-05-02T01:53:41.208Z,9.90
2023-05-02T01:53:52.888Z,9.90
2023-05-02T01:54:03.625Z,10.20
2023-05-02T01:54:15.356Z,10.10
2023-05-02T01:54:27.040Z,10.00
2023-05-02T01:54:37.798Z,10.10
2023-05-02T01:54:48.499Z,9.90
2023-05-02T01:55:00.187Z,9.30
2023-05-02T01:55:11.835Z,9.60
2023-05-02T01:55:24.343Z,9.50
2023-05-02T01:55:35.099Z,9.80
2023-05-02T01:55:46.737Z,10.10
2023-05-02T01:55:59.086Z,10.00
2023-05-02T01:56:09.832Z,10.10
2023-05-02T01:56:20.550Z,10.10
2023-05-02T01:56:32.725Z,10.30
2023-05-02T01:56:44.398Z,9.80
2023-05-02T01:56:55.149Z,9.40
2023-05-02T01:57:07.313Z,9.50
2023-05-02T01:57:18.015Z,9.50
2023-05-02T01:57:30.425Z,9.70
2023-05-02T01:57:43.605Z,9.70
2023-05-02T01:57:55.607Z,9.60
2023-05-02T01:58:06.363Z,9.60
2023-05-02T01:58:17.152Z,9.60
2023-05-02T01:58:28.817Z,9.50
2023-05-02T01:58:41.018Z,9.70
2023-05-02T01:58:52.702Z,9.90
2023-05-02T01:59:03.395Z,9.60
2023-05-02T01:59:15.106Z,9.40
2023-05-02T01:59:27.016Z,9.50
2023-05-02T01:59:37.729Z,10.10
2023-05-02T01:59:48.507Z,10.40
2023-05-02T02:00:00.532Z,10.50
2023-05-02T02:00:12.454Z,10.20
2023-05-02T02:00:23.192Z,10.00
2023-05-02T02:00:33.929Z,10.00
2023-05-02T02:00:44.634Z,10.00
2023-05-02T02:00:55.415Z,10.30
2023-05-02T02:01:06.187Z,10.50
2023-05-02T02:01:18.596Z,10.50
2023-05-02T02:01:30.819Z,10.50
2023-05-02T02:01:42.489Z,10.40
2023-05-02T02:01:53.195Z,10.30
2023-05-02T02:02:05.465Z,10.40
2023-05-02T02:02:17.173Z,11.00
2023-05-02T02:02:29.632Z,11.20
2023-05-02T02:02:40.303Z,10.90
2023-05-02T02:02:51.092Z,10.90
2023-05-02T02:03:01.796Z,11.00
2023-05-02T02:03:13.958Z,11.00
2023-05-02T02:03:26.453Z,11.40
2023-05-02T02:03:37.284Z,11.40
2023-05-02T02:03:49.578Z,11.30
2023-05-02T02:04:02.008Z,11.30
2023-05-02T02:04:14.423Z,10.70
2023-05-02T02:04:25.445Z,10.80
2023-05-02T02:04:36.315Z,11.00
2023-05-02T02:04:47.086Z,11.60
2023-05-02T02:04:58.792Z,12.00
2023-05-02T02:05:10.408Z,11.80
2023-05-02T02:05:22.854Z,11.00
2023-05-02T02:05:33.552Z,11.10
2023-05-02T02:05:45.717Z,10.60
2023-05-02T02:05:57.651Z,10.80
2023-05-02T02:06:09.367Z,10.50
2023-05-02T02:06:21.815Z,10.70
2023-05-02T02:06:33.753Z,10.40
2023-05-02T02:06:45.677Z,10.50
2023-05-02T02:06:56.410Z,11.10
2023-05-02T02:07:07.129Z,11.40
2023-05-02T02:07:18.812Z,11.10
2023-05-02T02:07:29.565Z,9.90
2023-05-02T02:07:40.267Z,10.20
2023-05-02T02:07:51.936Z,10.40
2023-05-02T02:08:03.621Z,10.70
2023-05-02T02:08:15.333Z,11.30
2023-05-02T02:08:26.060Z,11.70
2023-05-02T02:08:38.228Z,11.40
2023-05-02T02:08:49.915Z,11.30
2023-05-02T02:09:00.631Z,11.60
2023-05-02T02:09:12.573Z,12.00
2023-05-02T02:09:23.271Z,11.30
2023-05-02T02:09:33.982Z,11.40
2023-05-02T02:09:45.435Z,11.50
2023-05-02T02:09:58.334Z,11.80
2023-05-02T02:10:09.184Z,11.90
2023-05-02T02:10:20.916Z,11.00
2023-05-02T02:10:32.616Z,10.60
2023-05-02T02:10:44.318Z,10.50
2023-05-02T02:10:56.015Z,10.70
2023-05-02T02:11:06.708Z,10.70
2023-05-02T02:11:18.396Z,11.30
2023-05-02T02:11:29.084Z,11.30
2023-05-02T02:11:42.275Z,11.30
2023-05-02T02:11:54.676Z,11.40
2023-05-02T02:12:07.832Z,11.70
2023-05-02T02:12:18.511Z,11.60
2023-05-02T02:12:30.197Z,10.90
2023-05-02T02:12:40.927Z,11.00
2023-05-02T02:12:52.657Z,10.90
2023-05-02T02:13:05.038Z,11.50
2023-05-02T02:13:17.216Z,11.10
2023-05-02T02:13:28.907Z,11.00
2023-05-02T02:13:41.105Z,11.40
2023-05-02T02:13:53.026Z,11.70
2023-05-02T02:14:03.742Z,11.70
2023-05-02T02:14:16.962Z,12.00
2023-05-02T02:14:28.625Z,11.30
2023-05-02T02:14:39.393Z,11.30
2023-05-02T02:14:51.801Z,11.20
2023-05-02T02:15:03.498Z,11.40
2023-05-02T02:15:14.200Z,11.40
2023-05-02T02:15:25.940Z,10.80
2023-05-02T02:15:38.338Z,10.80
2023-05-02T02:15:50.000Z,11.40
2023-05-02T02:16:02.754Z,11.60
2023-05-02T02:16:15.660Z,11.20
2023-05-02T02:16:27.336Z,10.70
2023-05-02T02:16:39.530Z,10.80
2023-05-02T02:16:50.326Z,11.30
2023-05-02T02:17:01.379Z,11.50
2023-05-02T02:17:13.822Z,11.30
2023-05-02T02:17:27.155Z,11.50
2023-05-02T02:17:39.988Z,12.00
2023-05-02T02:17:51.678Z,12.30
2023-05-02T02:18:03.379Z,11.70
2023-05-02T02:18:14.114Z,11.90
2023-05-02T02:18:26.536Z,11.70
2023-05-02T02:18:38.897Z,11.80
2023-05-02T02:18:50.558Z,11.30
2023-05-02T02:19:02.965Z,11.50
2023-05-02T02:19:16.171Z,11.60
2023-05-02T02:19:27.849Z,11.60
2023-05-02T02:19:38.583Z,11.40
2023-05-02T02:19:49.299Z,11.50
2023-05-02T02:20:00.318Z,11.90
2023-05-02T02:20:12.143Z,11.80
2023-05-02T02:20:22.854Z,11.60
2023-05-02T02:20:33.606Z,11.10
2023-05-02T02:20:44.308Z,11.10
2023-05-02T02:20:56.829Z,11.60
2023-05-02T02:21:07.620Z,11.60
2023-05-02T02:21:20.092Z,11.80
2023-05-02T02:21:31.758Z,12.10
2023-05-02T02:21:42.513Z,12.20
2023-05-02T02:21:54.203Z,11.50
2023-05-02T02:22:07.126Z,11.40
2023-05-02T02:22:19.543Z,11.20
2023-05-02T02:22:30.270Z,11.50
2023-05-02T02:22:40.942Z,11.40
2023-05-02T02:22:51.660Z,11.60
2023-05-02T02:23:04.063Z,11.70
2023-05-02T02:23:16.467Z,11.20
2023-05-02T02:23:28.168Z,11.30
2023-05-02T02:23:38.869Z,11.40
2023-05-02T02:23:51.285Z,11.40
2023-05-02T02:24:03.702Z,11.30
2023-05-02T02:24:15.377Z,11.10
2023-05-02T02:24:26.116Z,10.90
2023-05-02T02:24:39.024Z,11.20
2023-05-02T02:24:53.044Z,11.20
2023-05-02T02:25:07.408Z,10.80
2023-05-02T02:25:18.099Z,11.20
2023-05-02T02:25:29.758Z,11.30
2023-05-02T02:25:41.955Z,11.60
2023-05-02T02:25:53.637Z,11.40
2023-05-02T02:26:06.800Z,11.60
2023-05-02T02:26:19.221Z,11.10
2023-05-02T02:26:31.602Z,11.30
2023-05-02T02:26:42.347Z,11.70
2023-05-02T02:26:54.011Z,12.10
2023-05-02T02:27:04.709Z,11.40
2023-05-02T02:27:15.429Z,11.10
2023-05-02T02:27:26.150Z,10.90
2023-05-02T02:27:38.484Z,10.80
2023-05-02T02:27:49.330Z,10.90
2023-05-02T02:28:00.093Z,11.10
2023-05-02T02:28:10.798Z,11.00
2023-05-02T02:28:23.974Z,11.10
2023-05-02T02:28:34.672Z,11.20
2023-05-02T02:28:45.372Z,11.20
2023-05-02T02:28:57.756Z,11.60
2023-05-02T02:29:10.131Z,12.70
2023-05-02T02:29:20.823Z,12.40
2023-05-02T02:29:32.534Z,12.30
2023-05-02T02:29:44.469Z,12.20
2023-05-02T02:29:55.234Z,12.00
2023-05-02T02:30:06.954Z,11.80
2023-05-02T02:30:18.656Z,11.90
2023-05-02T02:30:30.851Z,12.20
2023-05-02T02:30:43.272Z,12.30
2023-05-02T02:30:54.041Z,11.60
2023-05-02T02:31:06.990Z,11.70
2023-05-02T02:31:19.434Z,11.80
2023-05-02T02:31:30.247Z,11.90
2023-05-02T02:31:41.999Z,11.70
2023-05-02T02:31:52.748Z,11.60
2023-05-02T02:32:03.494Z,11.30
2023-05-02T02:32:15.922Z,11.40
2023-05-02T02:32:29.636Z,11.50
2023-05-02T02:32:41.321Z,11.70
2023-05-02T02:32:52.040Z,12.00
2023-05-02T02:33:03.924Z,11.80
2023-05-02T02:33:14.969Z,11.50
2023-05-02T02:33:25.650Z,11.60